sensor_id;sensor_type;location;lat;lon;timestamp;temperature;humidity
27384;DHT22;14851;51.166;4.760;2022-10-29T00:00:50;14.20;99.90
27384;DHT22;14851;51.166;4.760;2022-10-29T00:03:16;14.10;99.90
27384;DHT22;14851;51.166;4.760;2022-10-29T00:05:43;14.20;99.90
27384;DHT22;14851;51.166;4.760;2022-10-29T00:08:09;14.10;99.90
27384;DHT22;14851;51.166;4.760;2022-10-29T00:10:40;14.10;99.90
27384;DHT22;14851;51.166;4.760;2022-10-29T00:13:10;14.00;99.90
27384;DHT22;14851;51.166;4.760;2022-10-29T00:15:39;13.90;99.90
27384;DHT22;14851;51.166;4.760;2022-10-29T00:18:05;13.80;99.90
27384;DHT22;14851;51.166;4.760;2022-10-29T00:20:33;13.80;99.90
27384;DHT22;14851;51.166;4.760;2022-10-29T00:22:59;13.80;99.90
27384;DHT22;14851;51.166;4.760;2022-10-29T00:25:25;13.80;99.90
27384;DHT22;14851;51.166;4.760;2022-10-29T00:27:51;13.80;99.90
27384;DHT22;14851;51.166;4.760;2022-10-29T00:30:19;13.80;99.90
27384;DHT22;14851;51.166;4.760;2022-10-29T00:32:45;13.80;99.90
27384;DHT22;14851;51.166;4.760;2022-10-29T00:35:11;13.80;99.90
27384;DHT22;14851;51.166;4.760;2022-10-29T00:37:36;13.60;99.90
27384;DHT22;14851;51.166;4.760;2022-10-29T00:40:03;13.60;99.90
27384;DHT22;14851;51.166;4.760;2022-10-29T00:42:28;13.60;99.90
27384;DHT22;14851;51.166;4.760;2022-10-29T00:44:59;13.60;99.90
27384;DHT22;14851;51.166;4.760;2022-10-29T00:47:28;13.60;99.90
27384;DHT22;14851;51.166;4.760;2022-10-29T00:50:03;13.60;99.90
27384;DHT22;14851;51.166;4.760;2022-10-29T00:52:32;13.50;99.90
27384;DHT22;14851;51.166;4.760;2022-10-29T00:55:02;13.50;99.90
27384;DHT22;14851;51.166;4.760;2022-10-29T00:57:34;13.60;99.90
27384;DHT22;14851;51.166;4.760;2022-10-29T01:00:03;13.50;99.90
27384;DHT22;14851;51.166;4.760;2022-10-29T01:02:32;13.50;99.90
27384;DHT22;14851;51.166;4.760;2022-10-29T01:05:00;13.40;99.90
27384;DHT22;14851;51.166;4.760;2022-10-29T01:07:27;13.50;99.90
27384;DHT22;14851;51.166;4.760;2022-10-29T01:09:54;13.40;99.90
27384;DHT22;14851;51.166;4.760;2022-10-29T01:17:44;13.40;99.90
27384;DHT22;14851;51.166;4.760;2022-10-29T01:32:03;13.30;99.90
27384;DHT22;14851;51.166;4.760;2022-10-29T01:34:53;13.20;99.90
27384;DHT22;14851;51.166;4.760;2022-10-29T01:42:48;13.20;99.90
27384;DHT22;14851;51.166;4.760;2022-10-29T01:45:16;13.20;99.90
27384;DHT22;14851;51.166;4.760;2022-10-29T01:47:53;13.20;99.90
27384;DHT22;14851;51.166;4.760;2022-10-29T01:50:23;13.20;99.90
27384;DHT22;14851;51.166;4.760;2022-10-29T01:52:50;13.20;99.90
27384;DHT22;14851;51.166;4.760;2022-10-29T01:55:22;13.20;99.90
27384;DHT22;14851;51.166;4.760;2022-10-29T01:57:49;13.10;99.90
27384;DHT22;14851;51.166;4.760;2022-10-29T02:00:17;13.10;99.90
27384;DHT22;14851;51.166;4.760;2022-10-29T02:05:29;13.00;99.90
27384;DHT22;14851;51.166;4.760;2022-10-29T02:13:14;13.10;99.90
27384;DHT22;14851;51.166;4.760;2022-10-29T02:15:45;13.20;99.90
27384;DHT22;14851;51.166;4.760;2022-10-29T02:18:13;13.10;99.90
27384;DHT22;14851;51.166;4.760;2022-10-29T02:20:44;13.20;99.90
27384;DHT22;14851;51.166;4.760;2022-10-29T02:23:10;13.20;99.90
27384;DHT22;14851;51.166;4.760;2022-10-29T02:25:38;13.20;99.90
27384;DHT22;14851;51.166;4.760;2022-10-29T02:28:04;13.20;99.90
27384;DHT22;14851;51.166;4.760;2022-10-29T02:30:30;13.10;99.90
27384;DHT22;14851;51.166;4.760;2022-10-29T02:32:56;13.00;99.90
27384;DHT22;14851;51.166;4.760;2022-10-29T02:35:24;13.00;99.90
27384;DHT22;14851;51.166;4.760;2022-10-29T02:37:50;13.00;99.90
27384;DHT22;14851;51.166;4.760;2022-10-29T02:40:16;13.00;99.90
27384;DHT22;14851;51.166;4.760;2022-10-29T02:42:42;13.00;99.90
27384;DHT22;14851;51.166;4.760;2022-10-29T02:45:08;13.00;99.90
27384;DHT22;14851;51.166;4.760;2022-10-29T02:47:35;13.00;99.90
27384;DHT22;14851;51.166;4.760;2022-10-29T02:50:00;12.90;99.90
27384;DHT22;14851;51.166;4.760;2022-10-29T02:52:29;12.90;99.90
27384;DHT22;14851;51.166;4.760;2022-10-29T02:54:58;12.90;99.90
27384;DHT22;14851;51.166;4.760;2022-10-29T02:57:23;13.00;99.90
27384;DHT22;14851;51.166;4.760;2022-10-29T02:59:50;12.90;99.90
27384;DHT22;14851;51.166;4.760;2022-10-29T03:02:16;13.00;99.90
27384;DHT22;14851;51.166;4.760;2022-10-29T03:04:41;13.00;99.90
27384;DHT22;14851;51.166;4.760;2022-10-29T03:07:09;13.00;99.90
27384;DHT22;14851;51.166;4.760;2022-10-29T03:09:37;13.10;99.90
27384;DHT22;14851;51.166;4.760;2022-10-29T03:12:03;13.00;99.90
27384;DHT22;14851;51.166;4.760;2022-10-29T03:14:30;13.10;99.90
27384;DHT22;14851;51.166;4.760;2022-10-29T03:16:55;13.10;99.90
27384;DHT22;14851;51.166;4.760;2022-10-29T03:19:24;13.10;99.90
27384;DHT22;14851;51.166;4.760;2022-10-29T03:21:49;13.10;99.90
27384;DHT22;14851;51.166;4.760;2022-10-29T03:24:16;13.10;99.90
27384;DHT22;14851;51.166;4.760;2022-10-29T03:26:43;13.10;99.90
27384;DHT22;14851;51.166;4.760;2022-10-29T03:29:09;13.10;99.90
27384;DHT22;14851;51.166;4.760;2022-10-29T03:31:34;13.10;99.90
27384;DHT22;14851;51.166;4.760;2022-10-29T03:34:01;13.10;99.90
27384;DHT22;14851;51.166;4.760;2022-10-29T03:36:26;13.20;99.90
27384;DHT22;14851;51.166;4.760;2022-10-29T03:38:52;13.20;99.90
27384;DHT22;14851;51.166;4.760;2022-10-29T03:41:18;13.20;99.90
27384;DHT22;14851;51.166;4.760;2022-10-29T03:43:46;13.20;99.90
27384;DHT22;14851;51.166;4.760;2022-10-29T03:46:14;13.20;99.90
27384;DHT22;14851;51.166;4.760;2022-10-29T03:48:41;13.20;99.90
27384;DHT22;14851;51.166;4.760;2022-10-29T03:51:08;13.20;99.90
27384;DHT22;14851;51.166;4.760;2022-10-29T03:53:37;13.20;99.90
27384;DHT22;14851;51.166;4.760;2022-10-29T03:56:03;13.20;99.90
27384;DHT22;14851;51.166;4.760;2022-10-29T03:58:30;13.20;99.90
27384;DHT22;14851;51.166;4.760;2022-10-29T04:01:00;13.20;99.90
27384;DHT22;14851;51.166;4.760;2022-10-29T04:03:28;13.10;99.90
27384;DHT22;14851;51.166;4.760;2022-10-29T04:05:55;13.20;99.90
27384;DHT22;14851;51.166;4.760;2022-10-29T04:08:22;13.30;99.90
27384;DHT22;14851;51.166;4.760;2022-10-29T04:10:49;13.20;99.90
27384;DHT22;14851;51.166;4.760;2022-10-29T04:13:18;13.20;99.90
27384;DHT22;14851;51.166;4.760;2022-10-29T04:15:45;13.20;99.90
27384;DHT22;14851;51.166;4.760;2022-10-29T04:18:11;13.20;99.90
27384;DHT22;14851;51.166;4.760;2022-10-29T04:20:39;13.20;99.90
27384;DHT22;14851;51.166;4.760;2022-10-29T04:23:06;13.10;99.90
27384;DHT22;14851;51.166;4.760;2022-10-29T04:25:33;13.10;99.90
27384;DHT22;14851;51.166;4.760;2022-10-29T04:28:01;13.10;99.90
27384;DHT22;14851;51.166;4.760;2022-10-29T04:30:28;13.10;99.90
27384;DHT22;14851;51.166;4.760;2022-10-29T04:32:56;13.20;99.90
27384;DHT22;14851;51.166;4.760;2022-10-29T04:35:23;13.10;99.90
27384;DHT22;14851;51.166;4.760;2022-10-29T04:37:51;13.00;99.90
27384;DHT22;14851;51.166;4.760;2022-10-29T04:40:24;13.10;99.90
27384;DHT22;14851;51.166;4.760;2022-10-29T04:42:50;13.00;99.90
27384;DHT22;14851;51.166;4.760;2022-10-29T04:45:16;13.10;99.90
27384;DHT22;14851;51.166;4.760;2022-10-29T04:47:46;13.00;99.90
27384;DHT22;14851;51.166;4.760;2022-10-29T04:50:12;13.10;99.90
27384;DHT22;14851;51.166;4.760;2022-10-29T04:52:39;13.00;99.90
27384;DHT22;14851;51.166;4.760;2022-10-29T04:55:07;13.00;99.90
27384;DHT22;14851;51.166;4.760;2022-10-29T04:57:33;13.00;99.90
27384;DHT22;14851;51.166;4.760;2022-10-29T05:00:00;13.00;99.90
27384;DHT22;14851;51.166;4.760;2022-10-29T05:02:26;12.90;99.90
27384;DHT22;14851;51.166;4.760;2022-10-29T05:04:52;13.00;99.90
27384;DHT22;14851;51.166;4.760;2022-10-29T05:07:18;13.00;99.90
27384;DHT22;14851;51.166;4.760;2022-10-29T05:09:43;13.00;99.90
27384;DHT22;14851;51.166;4.760;2022-10-29T05:12:09;12.90;99.90
27384;DHT22;14851;51.166;4.760;2022-10-29T05:14:35;12.90;99.90
27384;DHT22;14851;51.166;4.760;2022-10-29T05:17:01;13.00;99.90
27384;DHT22;14851;51.166;4.760;2022-10-29T05:19:26;13.10;99.90
27384;DHT22;14851;51.166;4.760;2022-10-29T05:21:52;13.10;99.90
27384;DHT22;14851;51.166;4.760;2022-10-29T05:24:20;13.10;99.90
27384;DHT22;14851;51.166;4.760;2022-10-29T05:26:46;13.20;99.90
27384;DHT22;14851;51.166;4.760;2022-10-29T05:29:12;13.20;99.90
27384;DHT22;14851;51.166;4.760;2022-10-29T05:31:38;13.20;99.90
27384;DHT22;14851;51.166;4.760;2022-10-29T05:34:03;13.30;99.90
27384;DHT22;14851;51.166;4.760;2022-10-29T05:36:30;13.40;99.90
27384;DHT22;14851;51.166;4.760;2022-10-29T05:38:55;13.30;99.90
27384;DHT22;14851;51.166;4.760;2022-10-29T05:41:22;13.30;99.90
27384;DHT22;14851;51.166;4.760;2022-10-29T05:43:50;13.40;99.90
27384;DHT22;14851;51.166;4.760;2022-10-29T05:46:15;13.50;99.90
27384;DHT22;14851;51.166;4.760;2022-10-29T05:48:41;13.40;99.90
27384;DHT22;14851;51.166;4.760;2022-10-29T05:51:07;13.60;99.90
27384;DHT22;14851;51.166;4.760;2022-10-29T05:53:33;13.50;99.90
27384;DHT22;14851;51.166;4.760;2022-10-29T05:55:58;13.40;99.90
27384;DHT22;14851;51.166;4.760;2022-10-29T05:58:25;13.40;99.90
27384;DHT22;14851;51.166;4.760;2022-10-29T06:00:50;13.40;99.90
27384;DHT22;14851;51.166;4.760;2022-10-29T06:03:18;13.30;99.90
27384;DHT22;14851;51.166;4.760;2022-10-29T06:05:46;13.30;99.90
27384;DHT22;14851;51.166;4.760;2022-10-29T06:08:13;13.30;99.90
27384;DHT22;14851;51.166;4.760;2022-10-29T06:10:39;13.20;99.90
27384;DHT22;14851;51.166;4.760;2022-10-29T06:13:14;13.30;99.90
27384;DHT22;14851;51.166;4.760;2022-10-29T06:15:40;13.30;99.90
27384;DHT22;14851;51.166;4.760;2022-10-29T06:18:06;13.20;99.90
27384;DHT22;14851;51.166;4.760;2022-10-29T06:20:32;13.10;99.90
27384;DHT22;14851;51.166;4.760;2022-10-29T06:22:58;13.20;99.90
27384;DHT22;14851;51.166;4.760;2022-10-29T06:25:26;13.10;99.90
27384;DHT22;14851;51.166;4.760;2022-10-29T06:28:01;13.20;99.90
27384;DHT22;14851;51.166;4.760;2022-10-29T06:30:32;13.10;99.90
27384;DHT22;14851;51.166;4.760;2022-10-29T06:33:01;13.20;99.90
27384;DHT22;14851;51.166;4.760;2022-10-29T06:35:30;13.30;99.90
27384;DHT22;14851;51.166;4.760;2022-10-29T06:38:04;13.10;99.90
27384;DHT22;14851;51.166;4.760;2022-10-29T06:40:30;13.10;99.90
27384;DHT22;14851;51.166;4.760;2022-10-29T06:43:03;13.10;99.90
27384;DHT22;14851;51.166;4.760;2022-10-29T06:45:32;13.20;99.90
27384;DHT22;14851;51.166;4.760;2022-10-29T06:47:58;13.10;99.90
27384;DHT22;14851;51.166;4.760;2022-10-29T06:50:24;13.10;99.90
27384;DHT22;14851;51.166;4.760;2022-10-29T06:53:00;13.10;99.90
27384;DHT22;14851;51.166;4.760;2022-10-29T06:55:28;13.20;99.90
27384;DHT22;14851;51.166;4.760;2022-10-29T06:58:16;13.30;99.90
27384;DHT22;14851;51.166;4.760;2022-10-29T07:00:43;13.20;99.90
27384;DHT22;14851;51.166;4.760;2022-10-29T07:03:14;13.40;99.90
27384;DHT22;14851;51.166;4.760;2022-10-29T07:05:43;13.30;99.90
27384;DHT22;14851;51.166;4.760;2022-10-29T07:08:10;13.30;99.90
27384;DHT22;14851;51.166;4.760;2022-10-29T07:10:37;13.40;99.90
27384;DHT22;14851;51.166;4.760;2022-10-29T07:13:06;13.40;99.90
27384;DHT22;14851;51.166;4.760;2022-10-29T07:15:32;13.50;99.90
27384;DHT22;14851;51.166;4.760;2022-10-29T07:18:00;13.60;99.90
27384;DHT22;14851;51.166;4.760;2022-10-29T07:20:30;13.70;99.90
27384;DHT22;14851;51.166;4.760;2022-10-29T07:22:58;13.80;99.90
27384;DHT22;14851;51.166;4.760;2022-10-29T07:25:26;13.70;99.90
27384;DHT22;14851;51.166;4.760;2022-10-29T07:27:53;13.80;99.90
27384;DHT22;14851;51.166;4.760;2022-10-29T07:30:21;13.90;99.90
27384;DHT22;14851;51.166;4.760;2022-10-29T07:32:48;13.80;99.90
27384;DHT22;14851;51.166;4.760;2022-10-29T07:35:15;13.90;99.90
27384;DHT22;14851;51.166;4.760;2022-10-29T07:37:46;14.10;99.90
27384;DHT22;14851;51.166;4.760;2022-10-29T07:40:13;13.90;99.90
27384;DHT22;14851;51.166;4.760;2022-10-29T07:42:39;14.10;99.90
27384;DHT22;14851;51.166;4.760;2022-10-29T07:45:06;13.90;99.90
27384;DHT22;14851;51.166;4.760;2022-10-29T07:47:32;13.90;99.90
27384;DHT22;14851;51.166;4.760;2022-10-29T07:49:58;14.10;99.90
27384;DHT22;14851;51.166;4.760;2022-10-29T07:52:26;14.20;99.90
27384;DHT22;14851;51.166;4.760;2022-10-29T07:54:51;14.10;99.90
27384;DHT22;14851;51.166;4.760;2022-10-29T07:57:17;14.30;99.90
27384;DHT22;14851;51.166;4.760;2022-10-29T07:59:45;14.20;99.90
27384;DHT22;14851;51.166;4.760;2022-10-29T08:02:12;14.50;99.90
27384;DHT22;14851;51.166;4.760;2022-10-29T08:04:42;14.50;99.90
27384;DHT22;14851;51.166;4.760;2022-10-29T08:07:08;14.50;99.90
27384;DHT22;14851;51.166;4.760;2022-10-29T08:09:36;14.60;99.90
27384;DHT22;14851;51.166;4.760;2022-10-29T08:12:02;14.70;99.90
27384;DHT22;14851;51.166;4.760;2022-10-29T08:14:32;14.50;99.90
27384;DHT22;14851;51.166;4.760;2022-10-29T08:16:58;14.60;99.90
27384;DHT22;14851;51.166;4.760;2022-10-29T08:19:24;14.60;99.90
27384;DHT22;14851;51.166;4.760;2022-10-29T08:21:52;14.60;99.90
27384;DHT22;14851;51.166;4.760;2022-10-29T08:24:18;14.70;99.90
27384;DHT22;14851;51.166;4.760;2022-10-29T08:26:45;14.70;99.90
27384;DHT22;14851;51.166;4.760;2022-10-29T08:29:11;14.80;99.90
27384;DHT22;14851;51.166;4.760;2022-10-29T08:31:39;15.00;99.90
27384;DHT22;14851;51.166;4.760;2022-10-29T08:34:05;14.90;99.90
27384;DHT22;14851;51.166;4.760;2022-10-29T08:36:31;15.00;99.90
27384;DHT22;14851;51.166;4.760;2022-10-29T08:38:58;15.00;99.90
27384;DHT22;14851;51.166;4.760;2022-10-29T08:41:29;15.20;99.90
27384;DHT22;14851;51.166;4.760;2022-10-29T08:44:40;15.10;99.90
27384;DHT22;14851;51.166;4.760;2022-10-29T08:47:22;15.10;99.90
27384;DHT22;14851;51.166;4.760;2022-10-29T08:52:18;15.40;99.90
27384;DHT22;14851;51.166;4.760;2022-10-29T08:55:19;15.40;99.90
27384;DHT22;14851;51.166;4.760;2022-10-29T08:57:51;15.50;99.90
27384;DHT22;14851;51.166;4.760;2022-10-29T09:00:25;15.60;99.90
27384;DHT22;14851;51.166;4.760;2022-10-29T09:02:57;15.80;99.90
27384;DHT22;14851;51.166;4.760;2022-10-29T09:05:44;15.70;99.90
27384;DHT22;14851;51.166;4.760;2022-10-29T09:25:17;16.10;99.90
27384;DHT22;14851;51.166;4.760;2022-10-29T09:27:54;16.20;99.90
27384;DHT22;14851;51.166;4.760;2022-10-29T09:30:28;16.20;99.90
27384;DHT22;14851;51.166;4.760;2022-10-29T09:32:58;16.30;99.90
27384;DHT22;14851;51.166;4.760;2022-10-29T09:40:41;16.40;99.90
27384;DHT22;14851;51.166;4.760;2022-10-29T09:46:31;16.40;99.90
27384;DHT22;14851;51.166;4.760;2022-10-29T09:51:48;16.60;99.90
27384;DHT22;14851;51.166;4.760;2022-10-29T09:54:18;16.60;99.90
27384;DHT22;14851;51.166;4.760;2022-10-29T09:56:47;16.80;99.90
27384;DHT22;14851;51.166;4.760;2022-10-29T09:59:43;16.70;99.90
27384;DHT22;14851;51.166;4.760;2022-10-29T10:02:37;16.60;99.90
27384;DHT22;14851;51.166;4.760;2022-10-29T10:05:17;16.70;99.90
27384;DHT22;14851;51.166;4.760;2022-10-29T10:10:36;16.60;99.90
27384;DHT22;14851;51.166;4.760;2022-10-29T10:13:04;16.70;99.90
27384;DHT22;14851;51.166;4.760;2022-10-29T10:15:35;16.60;99.90
27384;DHT22;14851;51.166;4.760;2022-10-29T10:20:38;16.70;99.90
27384;DHT22;14851;51.166;4.760;2022-10-29T10:23:45;16.80;99.90
27384;DHT22;14851;51.166;4.760;2022-10-29T10:26:39;16.70;99.90
27384;DHT22;14851;51.166;4.760;2022-10-29T10:31:39;16.80;99.90
27384;DHT22;14851;51.166;4.760;2022-10-29T10:39:40;17.00;99.90
27384;DHT22;14851;51.166;4.760;2022-10-29T10:42:26;17.00;99.90
27384;DHT22;14851;51.166;4.760;2022-10-29T10:45:15;17.00;99.90
27384;DHT22;14851;51.166;4.760;2022-10-29T10:47:51;17.10;99.90
27384;DHT22;14851;51.166;4.760;2022-10-29T10:50:21;17.10;99.90
27384;DHT22;14851;51.166;4.760;2022-10-29T10:52:48;17.10;99.90
27384;DHT22;14851;51.166;4.760;2022-10-29T11:00:22;17.20;99.90
27384;DHT22;14851;51.166;4.760;2022-10-29T11:08:33;17.30;99.90
27384;DHT22;14851;51.166;4.760;2022-10-29T11:11:07;17.40;99.90
27384;DHT22;14851;51.166;4.760;2022-10-29T11:13:39;17.40;99.90
27384;DHT22;14851;51.166;4.760;2022-10-29T11:16:17;17.40;99.90
27384;DHT22;14851;51.166;4.760;2022-10-29T11:18:57;17.40;99.90
27384;DHT22;14851;51.166;4.760;2022-10-29T11:30:12;17.50;99.90
27384;DHT22;14851;51.166;4.760;2022-10-29T11:40:33;17.60;99.90
27384;DHT22;14851;51.166;4.760;2022-10-29T11:43:01;17.70;99.90
27384;DHT22;14851;51.166;4.760;2022-10-29T11:54:04;18.10;99.90
27384;DHT22;14851;51.166;4.760;2022-10-29T12:02:31;18.30;99.90
27384;DHT22;14851;51.166;4.760;2022-10-29T12:05:25;18.40;99.90
27384;DHT22;14851;51.166;4.760;2022-10-29T12:19:01;18.80;99.90
27384;DHT22;14851;51.166;4.760;2022-10-29T12:21:37;18.80;99.90
27384;DHT22;14851;51.166;4.760;2022-10-29T12:27:08;18.90;99.90
27384;DHT22;14851;51.166;4.760;2022-10-29T12:32:23;19.00;99.90
27384;DHT22;14851;51.166;4.760;2022-10-29T12:34:58;19.10;99.90
27384;DHT22;14851;51.166;4.760;2022-10-29T12:37:39;19.20;99.90
27384;DHT22;14851;51.166;4.760;2022-10-29T12:40:22;19.20;99.90
27384;DHT22;14851;51.166;4.760;2022-10-29T12:42:49;19.30;99.90
27384;DHT22;14851;51.166;4.760;2022-10-29T12:48:04;19.30;99.90
27384;DHT22;14851;51.166;4.760;2022-10-29T12:53:37;19.20;99.90
27384;DHT22;14851;51.166;4.760;2022-10-29T12:56:06;19.10;99.90
27384;DHT22;14851;51.166;4.760;2022-10-29T13:03:57;19.00;99.90
27384;DHT22;14851;51.166;4.760;2022-10-29T13:12:10;19.00;99.90
27384;DHT22;14851;51.166;4.760;2022-10-29T13:14:52;19.10;99.90
27384;DHT22;14851;51.166;4.760;2022-10-29T13:22:57;19.30;99.90
27384;DHT22;14851;51.166;4.760;2022-10-29T13:28:00;19.40;99.90
27384;DHT22;14851;51.166;4.760;2022-10-29T13:30:48;19.40;99.90
27384;DHT22;14851;51.166;4.760;2022-10-29T13:43:58;19.80;99.90
27384;DHT22;14851;51.166;4.760;2022-10-29T13:46:33;19.80;99.90
27384;DHT22;14851;51.166;4.760;2022-10-29T13:49:19;19.90;99.90
27384;DHT22;14851;51.166;4.760;2022-10-29T13:54:49;19.90;99.90
27384;DHT22;14851;51.166;4.760;2022-10-29T14:00:20;20.00;99.90
27384;DHT22;14851;51.166;4.760;2022-10-29T14:05:41;19.80;99.90
27384;DHT22;14851;51.166;4.760;2022-10-29T14:08:19;19.70;99.90
27384;DHT22;14851;51.166;4.760;2022-10-29T14:10:56;19.70;99.90
27384;DHT22;14851;51.166;4.760;2022-10-29T14:16:10;19.70;99.90
27384;DHT22;14851;51.166;4.760;2022-10-29T14:18:41;19.70;99.90
27384;DHT22;14851;51.166;4.760;2022-10-29T14:21:12;19.70;99.90
27384;DHT22;14851;51.166;4.760;2022-10-29T14:26:37;19.70;99.90
27384;DHT22;14851;51.166;4.760;2022-10-29T14:29:30;19.70;99.90
27384;DHT22;14851;51.166;4.760;2022-10-29T14:34:33;19.70;99.90
27384;DHT22;14851;51.166;4.760;2022-10-29T14:37:03;19.70;99.90
27384;DHT22;14851;51.166;4.760;2022-10-29T14:39:45;19.70;99.90
27384;DHT22;14851;51.166;4.760;2022-10-29T14:42:39;19.60;99.90
27384;DHT22;14851;51.166;4.760;2022-10-29T14:45:21;19.60;99.90
27384;DHT22;14851;51.166;4.760;2022-10-29T14:47:51;19.60;99.90
27384;DHT22;14851;51.166;4.760;2022-10-29T14:50:25;19.50;99.90
27384;DHT22;14851;51.166;4.760;2022-10-29T14:52:59;19.50;99.90
27384;DHT22;14851;51.166;4.760;2022-10-29T14:55:37;19.50;99.90
27384;DHT22;14851;51.166;4.760;2022-10-29T15:00:36;19.50;99.90
27384;DHT22;14851;51.166;4.760;2022-10-29T15:03:04;19.40;99.90
27384;DHT22;14851;51.166;4.760;2022-10-29T15:05:38;19.40;99.90
27384;DHT22;14851;51.166;4.760;2022-10-29T15:11:25;19.40;99.90
27384;DHT22;14851;51.166;4.760;2022-10-29T15:18:01;19.30;99.90
27384;DHT22;14851;51.166;4.760;2022-10-29T15:21:02;19.30;99.90
27384;DHT22;14851;51.166;4.760;2022-10-29T15:23:51;19.20;99.90
27384;DHT22;14851;51.166;4.760;2022-10-29T15:26:55;19.30;99.90
27384;DHT22;14851;51.166;4.760;2022-10-29T15:29:26;19.20;99.90
27384;DHT22;14851;51.166;4.760;2022-10-29T15:32:04;19.20;99.90
27384;DHT22;14851;51.166;4.760;2022-10-29T15:34:37;19.10;99.90
27384;DHT22;14851;51.166;4.760;2022-10-29T15:37:38;19.10;99.90
27384;DHT22;14851;51.166;4.760;2022-10-29T15:40:37;19.00;99.90
27384;DHT22;14851;51.166;4.760;2022-10-29T15:43:27;19.00;99.90
27384;DHT22;14851;51.166;4.760;2022-10-29T15:45:56;18.90;99.90
27384;DHT22;14851;51.166;4.760;2022-10-29T15:48:28;18.90;99.90
27384;DHT22;14851;51.166;4.760;2022-10-29T15:50:59;18.80;99.90
27384;DHT22;14851;51.166;4.760;2022-10-29T15:53:24;18.80;99.90
27384;DHT22;14851;51.166;4.760;2022-10-29T15:56:15;18.80;99.90
27384;DHT22;14851;51.166;4.760;2022-10-29T15:58:44;18.70;99.90
27384;DHT22;14851;51.166;4.760;2022-10-29T16:01:23;18.60;99.90
27384;DHT22;14851;51.166;4.760;2022-10-29T16:03:52;18.60;99.90
27384;DHT22;14851;51.166;4.760;2022-10-29T16:06:17;18.70;99.90
27384;DHT22;14851;51.166;4.760;2022-10-29T16:08:50;18.60;99.90
27384;DHT22;14851;51.166;4.760;2022-10-29T16:11:20;18.70;99.90
27384;DHT22;14851;51.166;4.760;2022-10-29T16:13:53;18.70;99.90
27384;DHT22;14851;51.166;4.760;2022-10-29T16:16:23;18.70;99.90
27384;DHT22;14851;51.166;4.760;2022-10-29T16:18:50;18.60;99.90
27384;DHT22;14851;51.166;4.760;2022-10-29T16:21:20;18.60;99.90
27384;DHT22;14851;51.166;4.760;2022-10-29T16:23:47;18.60;99.90
27384;DHT22;14851;51.166;4.760;2022-10-29T16:26:19;18.50;99.90
27384;DHT22;14851;51.166;4.760;2022-10-29T16:28:45;18.50;99.90
27384;DHT22;14851;51.166;4.760;2022-10-29T16:31:27;18.50;99.90
27384;DHT22;14851;51.166;4.760;2022-10-29T16:34:00;18.50;99.90
27384;DHT22;14851;51.166;4.760;2022-10-29T16:36:27;18.40;99.90
27384;DHT22;14851;51.166;4.760;2022-10-29T16:38:53;18.40;99.90
27384;DHT22;14851;51.166;4.760;2022-10-29T16:41:20;18.30;99.90
27384;DHT22;14851;51.166;4.760;2022-10-29T16:43:46;18.20;99.90
27384;DHT22;14851;51.166;4.760;2022-10-29T16:46:13;18.20;99.90
27384;DHT22;14851;51.166;4.760;2022-10-29T16:48:41;18.20;99.90
27384;DHT22;14851;51.166;4.760;2022-10-29T16:51:07;18.10;99.90
27384;DHT22;14851;51.166;4.760;2022-10-29T16:53:34;18.10;99.90
27384;DHT22;14851;51.166;4.760;2022-10-29T16:56:01;18.10;99.90
27384;DHT22;14851;51.166;4.760;2022-10-29T16:58:27;18.10;99.90
27384;DHT22;14851;51.166;4.760;2022-10-29T17:01:03;18.00;99.90
27384;DHT22;14851;51.166;4.760;2022-10-29T17:03:30;18.00;99.90
27384;DHT22;14851;51.166;4.760;2022-10-29T17:06:03;17.90;99.90
27384;DHT22;14851;51.166;4.760;2022-10-29T17:08:36;18.00;99.90
27384;DHT22;14851;51.166;4.760;2022-10-29T17:11:03;17.90;99.90
27384;DHT22;14851;51.166;4.760;2022-10-29T17:13:32;17.80;99.90
27384;DHT22;14851;51.166;4.760;2022-10-29T17:15:58;17.70;99.90
27384;DHT22;14851;51.166;4.760;2022-10-29T17:18:24;17.70;99.90
27384;DHT22;14851;51.166;4.760;2022-10-29T17:20:57;17.70;99.90
27384;DHT22;14851;51.166;4.760;2022-10-29T17:23:26;17.70;99.90
27384;DHT22;14851;51.166;4.760;2022-10-29T17:25:56;17.60;99.90
27384;DHT22;14851;51.166;4.760;2022-10-29T17:28:23;17.60;99.90
27384;DHT22;14851;51.166;4.760;2022-10-29T17:30:49;17.60;99.90
27384;DHT22;14851;51.166;4.760;2022-10-29T17:33:15;17.50;99.90
27384;DHT22;14851;51.166;4.760;2022-10-29T17:35:42;17.40;99.90
27384;DHT22;14851;51.166;4.760;2022-10-29T17:38:08;17.40;99.90
27384;DHT22;14851;51.166;4.760;2022-10-29T17:40:37;17.40;99.90
27384;DHT22;14851;51.166;4.760;2022-10-29T17:43:05;17.30;99.90
27384;DHT22;14851;51.166;4.760;2022-10-29T17:45:31;17.30;99.90
27384;DHT22;14851;51.166;4.760;2022-10-29T17:47:58;17.30;99.90
27384;DHT22;14851;51.166;4.760;2022-10-29T17:50:24;17.30;99.90
27384;DHT22;14851;51.166;4.760;2022-10-29T17:52:54;17.20;99.90
27384;DHT22;14851;51.166;4.760;2022-10-29T17:55:23;17.20;99.90
27384;DHT22;14851;51.166;4.760;2022-10-29T17:57:52;17.10;99.90
27384;DHT22;14851;51.166;4.760;2022-10-29T18:00:19;17.10;99.90
27384;DHT22;14851;51.166;4.760;2022-10-29T18:02:48;17.10;99.90
27384;DHT22;14851;51.166;4.760;2022-10-29T18:05:16;17.10;99.90
27384;DHT22;14851;51.166;4.760;2022-10-29T18:07:45;17.00;99.90
27384;DHT22;14851;51.166;4.760;2022-10-29T18:10:11;17.00;99.90
27384;DHT22;14851;51.166;4.760;2022-10-29T18:12:37;16.90;99.90
27384;DHT22;14851;51.166;4.760;2022-10-29T18:15:04;16.90;99.90
27384;DHT22;14851;51.166;4.760;2022-10-29T18:17:31;16.90;99.90
27384;DHT22;14851;51.166;4.760;2022-10-29T18:19:57;16.90;99.90
27384;DHT22;14851;51.166;4.760;2022-10-29T18:22:23;16.90;99.90
27384;DHT22;14851;51.166;4.760;2022-10-29T18:24:49;16.80;99.90
27384;DHT22;14851;51.166;4.760;2022-10-29T18:27:15;16.90;99.90
27384;DHT22;14851;51.166;4.760;2022-10-29T18:29:41;16.80;99.90
27384;DHT22;14851;51.166;4.760;2022-10-29T18:32:09;16.80;99.90
27384;DHT22;14851;51.166;4.760;2022-10-29T18:34:38;16.80;99.90
27384;DHT22;14851;51.166;4.760;2022-10-29T18:37:05;16.80;99.90
27384;DHT22;14851;51.166;4.760;2022-10-29T18:39:31;16.70;99.90
27384;DHT22;14851;51.166;4.760;2022-10-29T18:41:58;16.60;99.90
27384;DHT22;14851;51.166;4.760;2022-10-29T18:44:25;16.60;99.90
27384;DHT22;14851;51.166;4.760;2022-10-29T18:46:51;16.60;99.90
27384;DHT22;14851;51.166;4.760;2022-10-29T18:49:20;16.50;99.90
27384;DHT22;14851;51.166;4.760;2022-10-29T18:51:47;16.50;99.90
27384;DHT22;14851;51.166;4.760;2022-10-29T18:54:14;16.40;99.90
27384;DHT22;14851;51.166;4.760;2022-10-29T18:56:41;16.40;99.90
27384;DHT22;14851;51.166;4.760;2022-10-29T18:59:13;16.30;99.90
27384;DHT22;14851;51.166;4.760;2022-10-29T19:01:40;16.20;99.90
27384;DHT22;14851;51.166;4.760;2022-10-29T19:04:10;16.20;99.90